sensor_id;sensor_type;location;lat;lon;timestamp;P1;durP1;ratioP1;P2;durP2;ratioP2
47882;SDS011;37739;50.350;7.578;2022-11-20T00:01:16;16.03;;;12.53;;
47882;SDS011;37739;50.350;7.578;2022-11-20T00:03:50;14.70;;;11.53;;
47882;SDS011;37739;50.350;7.578;2022-11-20T00:06:18;16.20;;;12.77;;
47882;SDS011;37739;50.350;7.578;2022-11-20T00:08:45;18.80;;;13.90;;
47882;SDS011;37739;50.350;7.578;2022-11-20T00:11:14;17.93;;;12.53;;
47882;SDS011;37739;50.350;7.578;2022-11-20T00:13:50;15.73;;;13.10;;
47882;SDS011;37739;50.350;7.578;2022-11-20T00:16:18;15.10;;;12.07;;
47882;SDS011;37739;50.350;7.578;2022-11-20T00:18:47;16.13;;;12.23;;
47882;SDS011;37739;50.350;7.578;2022-11-20T00:21:16;16.00;;;13.47;;
47882;SDS011;37739;50.350;7.578;2022-11-20T00:23:51;14.97;;;11.97;;
47882;SDS011;37739;50.350;7.578;2022-11-20T00:26:19;15.10;;;11.63;;
47882;SDS011;37739;50.350;7.578;2022-11-20T00:28:58;16.10;;;12.93;;
47882;SDS011;37739;50.350;7.578;2022-11-20T00:31:25;16.93;;;13.00;;
47882;SDS011;37739;50.350;7.578;2022-11-20T00:33:56;15.17;;;11.90;;
47882;SDS011;37739;50.350;7.578;2022-11-20T00:36:22;12.63;;;10.93;;
47882;SDS011;37739;50.350;7.578;2022-11-20T00:38:54;14.27;;;11.20;;
47882;SDS011;37739;50.350;7.578;2022-11-20T00:41:23;14.97;;;12.67;;
47882;SDS011;37739;50.350;7.578;2022-11-20T00:43:51;14.70;;;11.47;;
47882;SDS011;37739;50.350;7.578;2022-11-20T00:46:20;15.50;;;11.70;;
47882;SDS011;37739;50.350;7.578;2022-11-20T00:48:47;15.17;;;11.97;;
47882;SDS011;37739;50.350;7.578;2022-11-20T00:51:13;16.40;;;12.23;;
47882;SDS011;37739;50.350;7.578;2022-11-20T00:53:40;15.13;;;12.70;;
47882;SDS011;37739;50.350;7.578;2022-11-20T00:56:07;15.13;;;12.80;;
47882;SDS011;37739;50.350;7.578;2022-11-20T00:58:36;16.50;;;12.17;;
47882;SDS011;37739;50.350;7.578;2022-11-20T01:01:03;16.53;;;13.07;;
47882;SDS011;37739;50.350;7.578;2022-11-20T01:03:34;16.13;;;13.17;;
47882;SDS011;37739;50.350;7.578;2022-11-20T01:06:04;17.47;;;12.60;;
47882;SDS011;37739;50.350;7.578;2022-11-20T01:08:32;18.73;;;13.37;;
47882;SDS011;37739;50.350;7.578;2022-11-20T01:11:05;16.87;;;12.70;;
47882;SDS011;37739;50.350;7.578;2022-11-20T01:13:32;18.37;;;11.93;;
47882;SDS011;37739;50.350;7.578;2022-11-20T01:18:32;15.17;;;12.63;;
47882;SDS011;37739;50.350;7.578;2022-11-20T01:21:02;17.60;;;12.23;;
47882;SDS011;37739;50.350;7.578;2022-11-20T01:23:36;16.47;;;13.10;;
47882;SDS011;37739;50.350;7.578;2022-11-20T01:26:03;14.63;;;12.33;;
47882;SDS011;37739;50.350;7.578;2022-11-20T01:28:32;16.00;;;12.17;;
47882;SDS011;37739;50.350;7.578;2022-11-20T01:30:58;16.43;;;12.10;;
47882;SDS011;37739;50.350;7.578;2022-11-20T01:33:28;16.20;;;12.97;;
47882;SDS011;37739;50.350;7.578;2022-11-20T01:36:02;16.87;;;12.60;;
47882;SDS011;37739;50.350;7.578;2022-11-20T01:38:29;17.83;;;13.00;;
47882;SDS011;37739;50.350;7.578;2022-11-20T01:40:57;14.13;;;11.23;;
47882;SDS011;37739;50.350;7.578;2022-11-20T01:43:22;14.97;;;11.57;;
47882;SDS011;37739;50.350;7.578;2022-11-20T01:45:59;15.00;;;11.80;;
47882;SDS011;37739;50.350;7.578;2022-11-20T01:48:32;15.73;;;13.43;;
47882;SDS011;37739;50.350;7.578;2022-11-20T01:51:01;16.60;;;11.97;;
47882;SDS011;37739;50.350;7.578;2022-11-20T01:53:36;15.80;;;12.30;;
47882;SDS011;37739;50.350;7.578;2022-11-20T01:56:02;16.40;;;11.97;;
47882;SDS011;37739;50.350;7.578;2022-11-20T01:58:35;17.00;;;11.90;;
47882;SDS011;37739;50.350;7.578;2022-11-20T02:01:07;17.27;;;12.70;;
47882;SDS011;37739;50.350;7.578;2022-11-20T02:03:33;14.27;;;10.70;;
47882;SDS011;37739;50.350;7.578;2022-11-20T02:06:04;11.63;;;9.20;;
47882;SDS011;37739;50.350;7.578;2022-11-20T02:08:31;11.87;;;9.57;;
47882;SDS011;37739;50.350;7.578;2022-11-20T02:10:57;17.50;;;13.77;;
47882;SDS011;37739;50.350;7.578;2022-11-20T02:13:25;17.37;;;13.60;;
47882;SDS011;37739;50.350;7.578;2022-11-20T02:16:10;14.23;;;10.60;;
47882;SDS011;37739;50.350;7.578;2022-11-20T02:18:43;17.97;;;14.17;;
47882;SDS011;37739;50.350;7.578;2022-11-20T02:21:18;17.30;;;13.13;;
47882;SDS011;37739;50.350;7.578;2022-11-20T02:26:28;17.20;;;13.70;;
47882;SDS011;37739;50.350;7.578;2022-11-20T02:28:58;19.60;;;14.97;;
47882;SDS011;37739;50.350;7.578;2022-11-20T02:31:33;17.90;;;12.97;;
47882;SDS011;37739;50.350;7.578;2022-11-20T02:34:03;15.10;;;12.43;;
47882;SDS011;37739;50.350;7.578;2022-11-20T02:36:28;15.37;;;12.50;;
47882;SDS011;37739;50.350;7.578;2022-11-20T02:38:59;15.83;;;12.70;;
47882;SDS011;37739;50.350;7.578;2022-11-20T02:41:34;18.10;;;13.33;;
47882;SDS011;37739;50.350;7.578;2022-11-20T02:44:01;18.03;;;12.93;;
47882;SDS011;37739;50.350;7.578;2022-11-20T02:46:27;15.30;;;12.40;;
47882;SDS011;37739;50.350;7.578;2022-11-20T02:48:55;16.47;;;12.63;;
47882;SDS011;37739;50.350;7.578;2022-11-20T02:51:20;18.03;;;12.87;;
47882;SDS011;37739;50.350;7.578;2022-11-20T02:53:46;14.73;;;11.40;;
47882;SDS011;37739;50.350;7.578;2022-11-20T02:56:11;14.37;;;11.00;;
47882;SDS011;37739;50.350;7.578;2022-11-20T02:58:38;16.83;;;13.17;;
47882;SDS011;37739;50.350;7.578;2022-11-20T03:01:04;16.70;;;12.30;;
47882;SDS011;37739;50.350;7.578;2022-11-20T03:03:29;15.57;;;12.90;;
47882;SDS011;37739;50.350;7.578;2022-11-20T03:05:58;14.67;;;12.40;;
47882;SDS011;37739;50.350;7.578;2022-11-20T03:08:26;15.73;;;11.90;;
47882;SDS011;37739;50.350;7.578;2022-11-20T03:10:52;15.03;;;10.87;;
47882;SDS011;37739;50.350;7.578;2022-11-20T03:13:19;11.07;;;9.43;;
47882;SDS011;37739;50.350;7.578;2022-11-20T03:15:47;16.70;;;12.40;;
47882;SDS011;37739;50.350;7.578;2022-11-20T03:18:15;14.30;;;10.67;;
47882;SDS011;37739;50.350;7.578;2022-11-20T03:20:40;16.17;;;12.47;;
47882;SDS011;37739;50.350;7.578;2022-11-20T03:23:13;13.60;;;10.83;;
47882;SDS011;37739;50.350;7.578;2022-11-20T03:25:38;14.67;;;11.40;;
47882;SDS011;37739;50.350;7.578;2022-11-20T03:28:06;14.87;;;11.90;;
47882;SDS011;37739;50.350;7.578;2022-11-20T03:30:31;14.57;;;11.87;;
47882;SDS011;37739;50.350;7.578;2022-11-20T03:32:57;16.20;;;12.80;;
47882;SDS011;37739;50.350;7.578;2022-11-20T03:35:25;16.00;;;11.77;;
47882;SDS011;37739;50.350;7.578;2022-11-20T03:37:50;15.27;;;12.90;;
47882;SDS011;37739;50.350;7.578;2022-11-20T03:40:16;15.00;;;12.03;;
47882;SDS011;37739;50.350;7.578;2022-11-20T03:42:41;15.07;;;11.60;;
47882;SDS011;37739;50.350;7.578;2022-11-20T03:45:13;14.40;;;10.80;;
47882;SDS011;37739;50.350;7.578;2022-11-20T03:47:40;16.37;;;11.00;;
47882;SDS011;37739;50.350;7.578;2022-11-20T03:50:06;17.63;;;13.33;;
47882;SDS011;37739;50.350;7.578;2022-11-20T03:52:34;15.70;;;12.13;;
47882;SDS011;37739;50.350;7.578;2022-11-20T03:54:59;18.40;;;12.93;;
47882;SDS011;37739;50.350;7.578;2022-11-20T03:57:24;15.70;;;12.77;;
47882;SDS011;37739;50.350;7.578;2022-11-20T03:59:50;15.70;;;12.20;;
47882;SDS011;37739;50.350;7.578;2022-11-20T04:02:15;16.73;;;12.33;;
47882;SDS011;37739;50.350;7.578;2022-11-20T04:04:40;19.67;;;13.23;;
47882;SDS011;37739;50.350;7.578;2022-11-20T04:07:06;17.80;;;13.70;;
47882;SDS011;37739;50.350;7.578;2022-11-20T04:09:31;16.63;;;12.40;;
47882;SDS011;37739;50.350;7.578;2022-11-20T04:11:56;16.80;;;12.50;;
47882;SDS011;37739;50.350;7.578;2022-11-20T04:14:22;17.97;;;12.83;;
47882;SDS011;37739;50.350;7.578;2022-11-20T04:16:49;16.43;;;11.70;;
47882;SDS011;37739;50.350;7.578;2022-11-20T04:19:15;15.20;;;12.27;;
47882;SDS011;37739;50.350;7.578;2022-11-20T04:21:41;18.20;;;13.50;;
47882;SDS011;37739;50.350;7.578;2022-11-20T04:24:08;17.13;;;12.67;;
47882;SDS011;37739;50.350;7.578;2022-11-20T04:26:35;18.67;;;13.43;;
47882;SDS011;37739;50.350;7.578;2022-11-20T04:29:03;15.10;;;12.40;;
47882;SDS011;37739;50.350;7.578;2022-11-20T04:31:32;13.93;;;11.17;;
47882;SDS011;37739;50.350;7.578;2022-11-20T04:34:03;17.23;;;12.77;;
47882;SDS011;37739;50.350;7.578;2022-11-20T04:36:29;16.60;;;12.20;;
47882;SDS011;37739;50.350;7.578;2022-11-20T04:39:03;17.30;;;12.40;;
47882;SDS011;37739;50.350;7.578;2022-11-20T04:41:30;15.00;;;11.87;;
47882;SDS011;37739;50.350;7.578;2022-11-20T04:44:00;17.13;;;12.57;;
47882;SDS011;37739;50.350;7.578;2022-11-20T04:46:28;17.77;;;13.07;;
47882;SDS011;37739;50.350;7.578;2022-11-20T04:48:55;18.53;;;13.10;;
47882;SDS011;37739;50.350;7.578;2022-11-20T04:51:21;18.23;;;13.60;;
47882;SDS011;37739;50.350;7.578;2022-11-20T04:53:49;18.03;;;12.50;;
47882;SDS011;37739;50.350;7.578;2022-11-20T04:56:17;16.00;;;12.17;;
47882;SDS011;37739;50.350;7.578;2022-11-20T04:58:42;16.97;;;10.70;;
47882;SDS011;37739;50.350;7.578;2022-11-20T05:01:19;17.40;;;12.63;;
47882;SDS011;37739;50.350;7.578;2022-11-20T05:03:48;18.33;;;12.60;;
47882;SDS011;37739;50.350;7.578;2022-11-20T05:06:15;17.57;;;12.47;;
47882;SDS011;37739;50.350;7.578;2022-11-20T05:08:42;20.33;;;13.60;;
47882;SDS011;37739;50.350;7.578;2022-11-20T05:11:08;23.53;;;14.10;;
47882;SDS011;37739;50.350;7.578;2022-11-20T05:13:37;18.50;;;12.33;;
47882;SDS011;37739;50.350;7.578;2022-11-20T05:16:04;21.90;;;13.33;;
47882;SDS011;37739;50.350;7.578;2022-11-20T05:18:34;19.60;;;12.57;;
47882;SDS011;37739;50.350;7.578;2022-11-20T05:21:00;17.80;;;13.03;;
47882;SDS011;37739;50.350;7.578;2022-11-20T05:23:26;17.60;;;13.13;;
47882;SDS011;37739;50.350;7.578;2022-11-20T05:25:58;17.27;;;12.13;;
47882;SDS011;37739;50.350;7.578;2022-11-20T05:28:24;19.30;;;13.37;;
47882;SDS011;37739;50.350;7.578;2022-11-20T05:30:52;18.10;;;12.80;;
47882;SDS011;37739;50.350;7.578;2022-11-20T05:33:17;13.50;;;11.47;;
47882;SDS011;37739;50.350;7.578;2022-11-20T05:35:43;19.00;;;12.60;;
47882;SDS011;37739;50.350;7.578;2022-11-20T05:38:08;16.93;;;13.30;;
47882;SDS011;37739;50.350;7.578;2022-11-20T05:40:36;16.57;;;13.00;;
47882;SDS011;37739;50.350;7.578;2022-11-20T05:43:04;15.63;;;11.00;;
47882;SDS011;37739;50.350;7.578;2022-11-20T05:45:29;16.27;;;13.10;;
47882;SDS011;37739;50.350;7.578;2022-11-20T05:47:57;14.70;;;10.50;;
47882;SDS011;37739;50.350;7.578;2022-11-20T05:50:28;18.50;;;13.30;;
47882;SDS011;37739;50.350;7.578;2022-11-20T05:52:57;14.73;;;11.30;;
47882;SDS011;37739;50.350;7.578;2022-11-20T05:55:26;16.10;;;13.17;;
47882;SDS011;37739;50.350;7.578;2022-11-20T05:57:53;18.23;;;13.50;;
47882;SDS011;37739;50.350;7.578;2022-11-20T06:00:21;18.27;;;12.20;;
47882;SDS011;37739;50.350;7.578;2022-11-20T06:02:47;17.00;;;12.80;;
47882;SDS011;37739;50.350;7.578;2022-11-20T06:05:12;18.43;;;12.20;;
47882;SDS011;37739;50.350;7.578;2022-11-20T06:07:40;17.60;;;12.10;;
47882;SDS011;37739;50.350;7.578;2022-11-20T06:10:05;18.50;;;12.50;;
47882;SDS011;37739;50.350;7.578;2022-11-20T06:12:31;15.10;;;11.30;;
47882;SDS011;37739;50.350;7.578;2022-11-20T06:14:57;16.63;;;11.93;;
47882;SDS011;37739;50.350;7.578;2022-11-20T06:17:26;15.03;;;11.50;;
47882;SDS011;37739;50.350;7.578;2022-11-20T06:19:54;15.93;;;12.20;;
47882;SDS011;37739;50.350;7.578;2022-11-20T06:22:22;15.20;;;12.40;;
47882;SDS011;37739;50.350;7.578;2022-11-20T06:24:50;15.93;;;11.60;;
47882;SDS011;37739;50.350;7.578;2022-11-20T06:27:17;14.20;;;10.57;;
47882;SDS011;37739;50.350;7.578;2022-11-20T06:29:42;17.70;;;12.40;;
47882;SDS011;37739;50.350;7.578;2022-11-20T06:32:08;15.40;;;12.30;;
47882;SDS011;37739;50.350;7.578;2022-11-20T06:34:35;14.47;;;10.20;;
47882;SDS011;37739;50.350;7.578;2022-11-20T06:37:01;22.10;;;15.10;;
47882;SDS011;37739;50.350;7.578;2022-11-20T06:39:28;18.50;;;13.40;;
47882;SDS011;37739;50.350;7.578;2022-11-20T06:41:56;15.47;;;12.00;;
47882;SDS011;37739;50.350;7.578;2022-11-20T06:44:24;18.77;;;13.07;;
47882;SDS011;37739;50.350;7.578;2022-11-20T06:46:49;17.90;;;12.30;;
47882;SDS011;37739;50.350;7.578;2022-11-20T06:49:17;17.70;;;12.43;;
47882;SDS011;37739;50.350;7.578;2022-11-20T06:51:44;16.47;;;11.90;;
47882;SDS011;37739;50.350;7.578;2022-11-20T06:54:10;18.67;;;12.87;;
47882;SDS011;37739;50.350;7.578;2022-11-20T06:56:35;18.53;;;13.63;;
47882;SDS011;37739;50.350;7.578;2022-11-20T06:59:03;16.80;;;11.70;;
47882;SDS011;37739;50.350;7.578;2022-11-20T07:01:29;16.43;;;12.50;;
47882;SDS011;37739;50.350;7.578;2022-11-20T07:03:55;16.43;;;11.97;;
47882;SDS011;37739;50.350;7.578;2022-11-20T07:06:22;18.23;;;12.80;;
47882;SDS011;37739;50.350;7.578;2022-11-20T07:08:50;18.80;;;12.10;;
47882;SDS011;37739;50.350;7.578;2022-11-20T07:11:18;16.93;;;13.23;;
47882;SDS011;37739;50.350;7.578;2022-11-20T07:13:43;20.27;;;13.17;;
47882;SDS011;37739;50.350;7.578;2022-11-20T07:16:08;20.90;;;14.47;;
47882;SDS011;37739;50.350;7.578;2022-11-20T07:18:34;18.00;;;13.33;;
47882;SDS011;37739;50.350;7.578;2022-11-20T07:21:02;21.00;;;13.70;;
47882;SDS011;37739;50.350;7.578;2022-11-20T07:23:29;21.00;;;14.27;;
47882;SDS011;37739;50.350;7.578;2022-11-20T07:25:54;20.90;;;14.80;;
47882;SDS011;37739;50.350;7.578;2022-11-20T07:28:20;24.10;;;15.63;;
47882;SDS011;37739;50.350;7.578;2022-11-20T07:30:52;20.33;;;13.30;;
47882;SDS011;37739;50.350;7.578;2022-11-20T07:33:18;19.73;;;13.50;;
47882;SDS011;37739;50.350;7.578;2022-11-20T07:35:44;19.23;;;13.50;;
47882;SDS011;37739;50.350;7.578;2022-11-20T07:38:10;20.10;;;13.47;;
47882;SDS011;37739;50.350;7.578;2022-11-20T07:40:35;19.10;;;13.77;;
47882;SDS011;37739;50.350;7.578;2022-11-20T07:43:03;16.53;;;12.33;;
47882;SDS011;37739;50.350;7.578;2022-11-20T07:45:28;20.07;;;13.50;;
47882;SDS011;37739;50.350;7.578;2022-11-20T07:47:56;17.20;;;12.50;;
47882;SDS011;37739;50.350;7.578;2022-11-20T07:50:23;17.80;;;12.97;;
47882;SDS011;37739;50.350;7.578;2022-11-20T07:52:49;18.70;;;12.77;;
47882;SDS011;37739;50.350;7.578;2022-11-20T07:55:14;19.60;;;13.63;;
47882;SDS011;37739;50.350;7.578;2022-11-20T07:57:40;17.33;;;12.90;;
47882;SDS011;37739;50.350;7.578;2022-11-20T08:00:08;17.40;;;12.47;;
47882;SDS011;37739;50.350;7.578;2022-11-20T08:02:39;17.80;;;13.07;;
47882;SDS011;37739;50.350;7.578;2022-11-20T08:05:05;15.60;;;12.60;;
47882;SDS011;37739;50.350;7.578;2022-11-20T08:07:35;17.67;;;13.03;;
47882;SDS011;37739;50.350;7.578;2022-11-20T08:10:02;18.30;;;13.93;;
47882;SDS011;37739;50.350;7.578;2022-11-20T08:12:30;16.00;;;12.07;;
47882;SDS011;37739;50.350;7.578;2022-11-20T08:15:14;17.37;;;11.40;;
47882;SDS011;37739;50.350;7.578;2022-11-20T08:17:39;17.30;;;13.90;;
47882;SDS011;37739;50.350;7.578;2022-11-20T08:20:04;13.73;;;10.60;;
47882;SDS011;37739;50.350;7.578;2022-11-20T08:22:34;15.90;;;12.00;;
47882;SDS011;37739;50.350;7.578;2022-11-20T08:25:00;15.60;;;12.60;;
47882;SDS011;37739;50.350;7.578;2022-11-20T08:27:25;20.10;;;13.40;;
47882;SDS011;37739;50.350;7.578;2022-11-20T08:29:51;18.03;;;12.77;;
47882;SDS011;37739;50.350;7.578;2022-11-20T08:32:16;18.20;;;12.70;;
47882;SDS011;37739;50.350;7.578;2022-11-20T08:34:41;14.03;;;10.70;;
47882;SDS011;37739;50.350;7.578;2022-11-20T08:37:09;16.07;;;12.03;;
47882;SDS011;37739;50.350;7.578;2022-11-20T08:39:44;18.90;;;12.60;;
47882;SDS011;37739;50.350;7.578;2022-11-20T08:42:11;17.63;;;12.27;;
47882;SDS011;37739;50.350;7.578;2022-11-20T08:44:37;16.60;;;13.07;;
47882;SDS011;37739;50.350;7.578;2022-11-20T08:47:04;17.67;;;14.30;;
47882;SDS011;37739;50.350;7.578;2022-11-20T08:49:29;16.57;;;13.40;;
47882;SDS011;37739;50.350;7.578;2022-11-20T08:51:55;18.40;;;12.90;;
47882;SDS011;37739;50.350;7.578;2022-11-20T08:54:20;19.93;;;14.07;;
47882;SDS011;37739;50.350;7.578;2022-11-20T08:56:47;14.60;;;11.67;;
47882;SDS011;37739;50.350;7.578;2022-11-20T08:59:17;16.17;;;11.47;;
47882;SDS011;37739;50.350;7.578;2022-11-20T09:01:42;14.07;;;11.17;;
47882;SDS011;37739;50.350;7.578;2022-11-20T09:04:10;17.20;;;13.03;;
47882;SDS011;37739;50.350;7.578;2022-11-20T09:06:36;16.60;;;12.60;;
47882;SDS011;37739;50.350;7.578;2022-11-20T09:09:04;17.83;;;13.90;;
47882;SDS011;37739;50.350;7.578;2022-11-20T09:11:33;18.90;;;14.03;;
47882;SDS011;37739;50.350;7.578;2022-11-20T09:13:59;18.63;;;13.23;;
47882;SDS011;37739;50.350;7.578;2022-11-20T09:16:27;20.90;;;14.60;;
47882;SDS011;37739;50.350;7.578;2022-11-20T09:18:55;17.53;;;13.20;;
47882;SDS011;37739;50.350;7.578;2022-11-20T09:21:25;18.30;;;13.03;;
47882;SDS011;37739;50.350;7.578;2022-11-20T09:23:55;17.20;;;11.70;;
47882;SDS011;37739;50.350;7.578;2022-11-20T09:26:20;16.10;;;12.20;;
47882;SDS011;37739;50.350;7.578;2022-11-20T09:28:46;16.27;;;12.87;;
47882;SDS011;37739;50.350;7.578;2022-11-20T09:31:17;16.90;;;10.87;;
47882;SDS011;37739;50.350;7.578;2022-11-20T09:33:46;17.10;;;13.27;;
47882;SDS011;37739;50.350;7.578;2022-11-20T09:36:14;12.43;;;10.40;;
47882;SDS011;37739;50.350;7.578;2022-11-20T09:38:41;14.40;;;11.20;;
47882;SDS011;37739;50.350;7.578;2022-11-20T09:41:14;13.97;;;10.63;;
47882;SDS011;37739;50.350;7.578;2022-11-20T09:44:07;17.90;;;11.80;;
47882;SDS011;37739;50.350;7.578;2022-11-20T09:46:40;14.60;;;11.43;;
47882;SDS011;37739;50.350;7.578;2022-11-20T09:54:42;15.17;;;11.23;;
47882;SDS011;37739;50.350;7.578;2022-11-20T09:57:20;15.60;;;11.00;;
47882;SDS011;37739;50.350;7.578;2022-11-20T09:59:51;14.40;;;11.17;;
47882;SDS011;37739;50.350;7.578;2022-11-20T10:02:39;15.03;;;10.67;;
47882;SDS011;37739;50.350;7.578;2022-11-20T10:13:20;14.13;;;10.70;;
47882;SDS011;37739;50.350;7.578;2022-11-20T10:29:46;16.30;;;11.73;;
47882;SDS011;37739;50.350;7.578;2022-11-20T10:32:20;16.13;;;11.50;;
47882;SDS011;37739;50.350;7.578;2022-11-20T10:34:59;17.13;;;12.47;;
47882;SDS011;37739;50.350;7.578;2022-11-20T10:37:33;17.00;;;12.97;;
47882;SDS011;37739;50.350;7.578;2022-11-20T10:43:37;15.60;;;12.37;;
47882;SDS011;37739;50.350;7.578;2022-11-20T10:46:00;14.70;;;11.67;;
47882;SDS011;37739;50.350;7.578;2022-11-20T10:48:30;13.80;;;11.73;;
47882;SDS011;37739;50.350;7.578;2022-11-20T10:56:21;13.23;;;10.03;;
47882;SDS011;37739;50.350;7.578;2022-11-20T11:01:28;12.57;;;10.60;;
47882;SDS011;37739;50.350;7.578;2022-11-20T11:03:54;11.47;;;9.50;;
47882;SDS011;37739;50.350;7.578;2022-11-20T11:09:16;11.70;;;9.00;;
47882;SDS011;37739;50.350;7.578;2022-11-20T11:11:46;12.83;;;10.13;;
47882;SDS011;37739;50.350;7.578;2022-11-20T11:14:12;14.23;;;10.57;;
47882;SDS011;37739;50.350;7.578;2022-11-20T11:16:52;12.30;;;9.20;;
47882;SDS011;37739;50.350;7.578;2022-11-20T11:19:22;10.67;;;8.77;;
47882;SDS011;37739;50.350;7.578;2022-11-20T11:21:51;11.10;;;9.00;;
47882;SDS011;37739;50.350;7.578;2022-11-20T11:24:23;12.23;;;9.10;;
47882;SDS011;37739;50.350;7.578;2022-11-20T11:27:00;13.27;;;10.00;;
47882;SDS011;37739;50.350;7.578;2022-11-20T11:29:29;9.87;;;8.57;;
47882;SDS011;37739;50.350;7.578;2022-11-20T11:34:40;10.13;;;8.00;;
47882;SDS011;37739;50.350;7.578;2022-11-20T11:37:13;10.53;;;8.40;;
47882;SDS011;37739;50.350;7.578;2022-11-20T11:39:42;10.70;;;8.70;;
47882;SDS011;37739;50.350;7.578;2022-11-20T11:42:12;11.30;;;9.50;;
47882;SDS011;37739;50.350;7.578;2022-11-20T11:44:45;8.23;;;7.23;;
47882;SDS011;37739;50.350;7.578;2022-11-20T11:47:33;10.20;;;8.50;;
47882;SDS011;37739;50.350;7.578;2022-11-20T11:53:24;10.80;;;9.30;;
47882;SDS011;37739;50.350;7.578;2022-11-20T12:06:51;11.70;;;9.13;;
47882;SDS011;37739;50.350;7.578;2022-11-20T12:09:27;10.70;;;8.70;;
47882;SDS011;37739;50.350;7.578;2022-11-20T12:12:16;9.60;;;8.10;;
47882;SDS011;37739;50.350;7.578;2022-11-20T12:14:49;9.77;;;8.33;;
47882;SDS011;37739;50.350;7.578;2022-11-20T12:17:23;10.20;;;8.23;;
47882;SDS011;37739;50.350;7.578;2022-11-20T12:19:49;9.10;;;8.10;;
47882;SDS011;37739;50.350;7.578;2022-11-20T12:22:37;9.10;;;7.77;;
47882;SDS011;37739;50.350;7.578;2022-11-20T12:25:10;9.90;;;7.93;;
47882;SDS011;37739;50.350;7.578;2022-11-20T12:28:06;8.80;;;7.80;;
47882;SDS011;37739;50.350;7.578;2022-11-20T12:30:41;11.20;;;8.83;;
47882;SDS011;37739;50.350;7.578;2022-11-20T12:36:05;10.70;;;8.10;;
47882;SDS011;37739;50.350;7.578;2022-11-20T12:38:45;9.70;;;8.53;;
47882;SDS011;37739;50.350;7.578;2022-11-20T12:41:39;10.63;;;7.93;;
47882;SDS011;37739;50.350;7.578;2022-11-20T12:55:49;10.70;;;8.27;;
47882;SDS011;37739;50.350;7.578;2022-11-20T13:06:53;8.73;;;7.73;;
47882;SDS011;37739;50.350;7.578;2022-11-20T13:09:22;13.27;;;9.00;;
47882;SDS011;37739;50.350;7.578;2022-11-20T13:17:22;10.43;;;9.00;;
47882;SDS011;37739;50.350;7.578;2022-11-20T13:19:58;10.70;;;8.20;;
47882;SDS011;37739;50.350;7.578;2022-11-20T13:22:27;9.30;;;8.27;;
47882;SDS011;37739;50.350;7.578;2022-11-20T13:27:52;9.20;;;7.57;;
47882;SDS011;37739;50.350;7.578;2022-11-20T13:30:23;12.37;;;9.33;;
47882;SDS011;37739;50.350;7.578;2022-11-20T13:35:34;10.03;;;8.93;;
47882;SDS011;37739;50.350;7.578;2022-11-20T13:40:26;11.47;;;9.77;;
47882;SDS011;37739;50.350;7.578;2022-11-20T13:43:04;12.77;;;10.37;;
47882;SDS011;37739;50.350;7.578;2022-11-20T13:46:00;11.10;;;9.10;;
47882;SDS011;37739;50.350;7.578;2022-11-20T13:48:30;10.07;;;8.90;;
47882;SDS011;37739;50.350;7.578;2022-11-20T13:56:48;10.17;;;7.93;;
47882;SDS011;37739;50.350;7.578;2022-11-20T14:02:21;9.00;;;7.50;;
47882;SDS011;37739;50.350;7.578;2022-11-20T14:04:51;10.73;;;9.37;;
47882;SDS011;37739;50.350;7.578;2022-11-20T14:07:18;8.73;;;7.47;;
47882;SDS011;37739;50.350;7.578;2022-11-20T14:09:50;7.83;;;6.80;;
47882;SDS011;37739;50.350;7.578;2022-11-20T14:12:22;7.43;;;6.50;;
47882;SDS011;37739;50.350;7.578;2022-11-20T14:14:54;7.60;;;5.80;;
47882;SDS011;37739;50.350;7.578;2022-11-20T14:17:24;7.40;;;5.90;;
47882;SDS011;37739;50.350;7.578;2022-11-20T14:19:59;7.17;;;6.47;;
47882;SDS011;37739;50.350;7.578;2022-11-20T14:22:32;8.90;;;6.70;;
47882;SDS011;37739;50.350;7.578;2022-11-20T14:27:32;6.90;;;6.20;;
47882;SDS011;37739;50.350;7.578;2022-11-20T14:30:00;7.97;;;6.50;;
47882;SDS011;37739;50.350;7.578;2022-11-20T14:32:29;6.90;;;6.20;;
47882;SDS011;37739;50.350;7.578;2022-11-20T14:34:56;7.13;;;6.40;;
47882;SDS011;37739;50.350;7.578;2022-11-20T14:37:28;8.60;;;7.50;;
47882;SDS011;37739;50.350;7.578;2022-11-20T14:40:01;5.23;;;4.73;;
47882;SDS011;37739;50.350;7.578;2022-11-20T14:42:27;7.03;;;6.33;;
47882;SDS011;37739;50.350;7.578;2022-11-20T14:44:57;5.47;;;4.97;;
47882;SDS011;37739;50.350;7.578;2022-11-20T14:47:29;5.37;;;4.83;;
47882;SDS011;37739;50.350;7.578;2022-11-20T14:49:58;5.20;;;4.63;;
47882;SDS011;37739;50.350;7.578;2022-11-20T14:52:26;6.27;;;5.43;;
47882;SDS011;37739;50.350;7.578;2022-11-20T14:54:56;6.00;;;5.40;;
47882;SDS011;37739;50.350;7.578;2022-11-20T14:57:31;5.53;;;5.00;;
47882;SDS011;37739;50.350;7.578;2022-11-20T15:02:38;4.17;;;3.77;;
47882;SDS011;37739;50.350;7.578;2022-11-20T15:05:08;5.07;;;4.40;;
47882;SDS011;37739;50.350;7.578;2022-11-20T15:07:45;8.40;;;4.47;;
47882;SDS011;37739;50.350;7.578;2022-11-20T15:10:24;5.60;;;4.70;;
47882;SDS011;37739;50.350;7.578;2022-11-20T15:12:53;7.30;;;4.80;;
47882;SDS011;37739;50.350;7.578;2022-11-20T15:15:25;5.00;;;4.30;;
47882;SDS011;37739;50.350;7.578;2022-11-20T15:18:09;4.27;;;3.87;;
47882;SDS011;37739;50.350;7.578;2022-11-20T15:20:39;5.60;;;4.40;;
47882;SDS011;37739;50.350;7.578;2022-11-20T15:23:09;4.70;;;3.97;;
47882;SDS011;37739;50.350;7.578;2022-11-20T15:25:37;5.23;;;4.07;;
47882;SDS011;37739;50.350;7.578;2022-11-20T15:28:04;4.20;;;3.33;;
47882;SDS011;37739;50.350;7.578;2022-11-20T15:30:40;7.57;;;5.30;;
47882;SDS011;37739;50.350;7.578;2022-11-20T15:33:07;4.70;;;4.30;;
47882;SDS011;37739;50.350;7.578;2022-11-20T15:35:35;4.30;;;3.70;;
47882;SDS011;37739;50.350;7.578;2022-11-20T15:38:03;4.90;;;3.93;;
47882;SDS011;37739;50.350;7.578;2022-11-20T15:40:28;5.23;;;4.20;;
47882;SDS011;37739;50.350;7.578;2022-11-20T15:42:54;6.20;;;5.17;;
47882;SDS011;37739;50.350;7.578;2022-11-20T15:45:29;7.63;;;5.70;;
47882;SDS011;37739;50.350;7.578;2022-11-20T15:48:01;5.30;;;4.37;;
47882;SDS011;37739;50.350;7.578;2022-11-20T15:50:32;7.23;;;4.27;;
47882;SDS011;37739;50.350;7.578;2022-11-20T15:53:04;4.67;;;4.00;;
47882;SDS011;37739;50.350;7.578;2022-11-20T15:55:30;4.97;;;4.17;;
47882;SDS011;37739;50.350;7.578;2022-11-20T15:57:55;4.77;;;3.40;;
47882;SDS011;37739;50.350;7.578;2022-11-20T16:00:21;2.70;;;2.50;;
47882;SDS011;37739;50.350;7.578;2022-11-20T16:02:46;3.50;;;2.70;;
47882;SDS011;37739;50.350;7.578;2022-11-20T16:05:11;3.27;;;2.30;;
47882;SDS011;37739;50.350;7.578;2022-11-20T16:07:37;4.13;;;2.70;;
47882;SDS011;37739;50.350;7.578;2022-11-20T16:10:02;2.83;;;2.30;;
47882;SDS011;37739;50.350;7.578;2022-11-20T16:12:30;3.90;;;3.33;;
47882;SDS011;37739;50.350;7.578;2022-11-20T16:15:14;3.30;;;2.90;;
47882;SDS011;37739;50.350;7.578;2022-11-20T16:18:00;4.20;;;3.20;;
47882;SDS011;37739;50.350;7.578;2022-11-20T16:20:26;3.43;;;3.03;;
47882;SDS011;37739;50.350;7.578;2022-11-20T16:22:51;2.83;;;2.50;;
47882;SDS011;37739;50.350;7.578;2022-11-20T16:25:16;2.97;;;2.60;;
47882;SDS011;37739;50.350;7.578;2022-11-20T16:27:44;4.30;;;2.67;;
47882;SDS011;37739;50.350;7.578;2022-11-20T16:30:10;3.77;;;3.47;;
47882;SDS011;37739;50.350;7.578;2022-11-20T16:32:40;5.17;;;3.03;;
47882;SDS011;37739;50.350;7.578;2022-11-20T16:35:08;5.00;;;3.73;;